sensor_id;sensor_type;location;lat;lon;timestamp;pressure;altitude;pressure_sealevel;temperature;humidity
8416;BME280;4245;42.120;24.732;2023-06-01T00:01:49;99352.19;;;18.58;100.00
8416;BME280;4245;42.120;24.732;2023-06-01T00:04:15;99372.63;;;18.69;100.00
8416;BME280;4245;42.120;24.732;2023-06-01T00:06:44;99365.53;;;18.67;100.00
8416;BME280;4245;42.120;24.732;2023-06-01T00:09:11;99367.28;;;18.59;100.00
8416;BME280;4245;42.120;24.732;2023-06-01T00:11:37;99360.78;;;18.44;100.00
8416;BME280;4245;42.120;24.732;2023-06-01T00:14:04;99358.75;;;18.46;100.00
8416;BME280;4245;42.120;24.732;2023-06-01T00:16:31;99371.34;;;18.45;100.00
8416;BME280;4245;42.120;24.732;2023-06-01T00:18:59;99365.84;;;18.47;100.00
8416;BME280;4245;42.120;24.732;2023-06-01T00:21:27;99361.38;;;18.55;100.00
8416;BME280;4245;42.120;24.732;2023-06-01T00:23:55;99363.38;;;18.36;100.00
8416;BME280;4245;42.120;24.732;2023-06-01T00:26:22;99362.16;;;18.48;100.00
8416;BME280;4245;42.120;24.732;2023-06-01T00:28:49;99361.97;;;18.49;100.00
8416;BME280;4245;42.120;24.732;2023-06-01T00:31:16;99362.91;;;18.40;100.00
8416;BME280;4245;42.120;24.732;2023-06-01T00:33:42;99367.91;;;18.35;100.00
8416;BME280;4245;42.120;24.732;2023-06-01T00:36:09;99361.84;;;18.33;100.00
8416;BME280;4245;42.120;24.732;2023-06-01T00:38:36;99351.63;;;18.19;100.00
8416;BME280;4245;42.120;24.732;2023-06-01T00:41:04;99365.22;;;18.17;100.00
8416;BME280;4245;42.120;24.732;2023-06-01T00:43:31;99367.59;;;18.20;100.00
8416;BME280;4245;42.120;24.732;2023-06-01T00:45:58;99368.06;;;18.16;100.00
8416;BME280;4245;42.120;24.732;2023-06-01T00:48:25;99366.53;;;18.31;100.00
8416;BME280;4245;42.120;24.732;2023-06-01T00:50:52;99372.28;;;18.36;100.00
8416;BME280;4245;42.120;24.732;2023-06-01T00:53:19;99357.09;;;18.27;100.00
8416;BME280;4245;42.120;24.732;2023-06-01T00:55:46;99365.28;;;18.25;100.00
8416;BME280;4245;42.120;24.732;2023-06-01T00:58:15;99363.91;;;18.21;100.00
8416;BME280;4245;42.120;24.732;2023-06-01T01:00:42;99371.31;;;18.19;100.00
8416;BME280;4245;42.120;24.732;2023-06-01T01:03:09;99371.59;;;18.16;100.00
8416;BME280;4245;42.120;24.732;2023-06-01T01:05:39;99367.69;;;18.11;100.00
8416;BME280;4245;42.120;24.732;2023-06-01T01:08:12;99376.75;;;18.10;100.00
8416;BME280;4245;42.120;24.732;2023-06-01T01:10:43;99380.44;;;18.09;100.00
8416;BME280;4245;42.120;24.732;2023-06-01T01:13:19;99383.06;;;18.01;100.00
8416;BME280;4245;42.120;24.732;2023-06-01T01:15:53;99383.41;;;18.06;100.00
8416;BME280;4245;42.120;24.732;2023-06-01T01:18:26;99384.66;;;18.11;100.00
8416;BME280;4245;42.120;24.732;2023-06-01T01:21:01;99377.16;;;18.15;100.00
8416;BME280;4245;42.120;24.732;2023-06-01T01:23:39;99374.81;;;18.02;100.00
8416;BME280;4245;42.120;24.732;2023-06-01T01:26:31;99379.47;;;17.83;100.00
8416;BME280;4245;42.120;24.732;2023-06-01T01:29:09;99376.66;;;17.84;100.00
8416;BME280;4245;42.120;24.732;2023-06-01T01:31:38;99376.97;;;17.81;100.00
8416;BME280;4245;42.120;24.732;2023-06-01T01:34:06;99375.41;;;17.78;100.00
8416;BME280;4245;42.120;24.732;2023-06-01T01:36:33;99378.50;;;17.84;100.00
8416;BME280;4245;42.120;24.732;2023-06-01T01:39:01;99381.31;;;17.82;100.00
8416;BME280;4245;42.120;24.732;2023-06-01T01:41:28;99380.25;;;17.93;100.00
8416;BME280;4245;42.120;24.732;2023-06-01T01:43:55;99379.34;;;17.84;100.00
8416;BME280;4245;42.120;24.732;2023-06-01T01:46:27;99371.38;;;17.65;100.00
8416;BME280;4245;42.120;24.732;2023-06-01T01:49:07;99386.69;;;17.55;100.00
8416;BME280;4245;42.120;24.732;2023-06-01T01:51:40;99393.28;;;17.70;100.00
8416;BME280;4245;42.120;24.732;2023-06-01T01:54:12;99389.56;;;17.80;100.00
8416;BME280;4245;42.120;24.732;2023-06-01T01:56:39;99393.69;;;17.75;100.00
8416;BME280;4245;42.120;24.732;2023-06-01T01:59:06;99397.09;;;17.67;100.00
8416;BME280;4245;42.120;24.732;2023-06-01T02:01:35;99400.09;;;17.55;100.00
8416;BME280;4245;42.120;24.732;2023-06-01T02:04:05;99395.44;;;17.57;100.00
8416;BME280;4245;42.120;24.732;2023-06-01T02:06:33;99395.44;;;17.57;100.00
8416;BME280;4245;42.120;24.732;2023-06-01T02:09:01;99399.47;;;17.33;100.00
8416;BME280;4245;42.120;24.732;2023-06-01T02:11:31;99397.91;;;17.41;100.00
8416;BME280;4245;42.120;24.732;2023-06-01T02:13:58;99402.75;;;17.37;100.00
8416;BME280;4245;42.120;24.732;2023-06-01T02:16:25;99393.44;;;17.31;100.00
8416;BME280;4245;42.120;24.732;2023-06-01T02:18:53;99404.91;;;17.14;100.00
8416;BME280;4245;42.120;24.732;2023-06-01T02:21:23;99407.22;;;17.00;100.00
8416;BME280;4245;42.120;24.732;2023-06-01T02:23:50;99405.53;;;17.08;100.00
8416;BME280;4245;42.120;24.732;2023-06-01T02:26:17;99409.34;;;17.06;100.00
8416;BME280;4245;42.120;24.732;2023-06-01T02:28:44;99402.81;;;17.18;100.00
8416;BME280;4245;42.120;24.732;2023-06-01T02:31:13;99397.16;;;17.11;100.00
8416;BME280;4245;42.120;24.732;2023-06-01T02:33:40;99408.19;;;17.18;100.00
8416;BME280;4245;42.120;24.732;2023-06-01T02:36:08;99401.13;;;17.17;100.00
8416;BME280;4245;42.120;24.732;2023-06-01T02:38:35;99405.47;;;17.27;100.00
8416;BME280;4245;42.120;24.732;2023-06-01T02:41:02;99400.13;;;17.18;100.00
8416;BME280;4245;42.120;24.732;2023-06-01T02:43:29;99402.38;;;17.22;100.00
8416;BME280;4245;42.120;24.732;2023-06-01T02:45:56;99403.09;;;17.15;100.00
8416;BME280;4245;42.120;24.732;2023-06-01T02:48:22;99400.56;;;17.13;100.00
8416;BME280;4245;42.120;24.732;2023-06-01T02:50:49;99406.34;;;17.18;100.00
8416;BME280;4245;42.120;24.732;2023-06-01T02:53:17;99409.75;;;17.01;100.00
8416;BME280;4245;42.120;24.732;2023-06-01T02:55:44;99400.75;;;16.92;100.00
8416;BME280;4245;42.120;24.732;2023-06-01T02:58:11;99410.63;;;16.92;100.00
8416;BME280;4245;42.120;24.732;2023-06-01T03:00:41;99401.31;;;16.96;100.00
8416;BME280;4245;42.120;24.732;2023-06-01T03:03:08;99399.47;;;16.97;100.00
8416;BME280;4245;42.120;24.732;2023-06-01T03:05:36;99403.97;;;16.96;100.00
8416;BME280;4245;42.120;24.732;2023-06-01T03:08:03;99401.47;;;16.85;100.00
8416;BME280;4245;42.120;24.732;2023-06-01T03:10:32;99401.88;;;16.90;100.00
8416;BME280;4245;42.120;24.732;2023-06-01T03:12:59;99409.66;;;16.93;100.00
8416;BME280;4245;42.120;24.732;2023-06-01T03:15:26;99407.09;;;16.91;100.00
8416;BME280;4245;42.120;24.732;2023-06-01T03:17:53;99403.56;;;17.01;100.00
8416;BME280;4245;42.120;24.732;2023-06-01T03:20:20;99402.69;;;17.00;100.00
8416;BME280;4245;42.120;24.732;2023-06-01T03:22:48;99407.19;;;17.09;100.00
8416;BME280;4245;42.120;24.732;2023-06-01T03:25:14;99407.97;;;16.92;100.00
8416;BME280;4245;42.120;24.732;2023-06-01T03:27:43;99414.03;;;16.94;100.00
8416;BME280;4245;42.120;24.732;2023-06-01T03:30:10;99415.28;;;17.00;100.00
8416;BME280;4245;42.120;24.732;2023-06-01T03:32:37;99419.81;;;16.99;100.00
8416;BME280;4245;42.120;24.732;2023-06-01T03:35:05;99422.31;;;17.10;100.00
8416;BME280;4245;42.120;24.732;2023-06-01T03:37:33;99418.94;;;17.08;100.00
8416;BME280;4245;42.120;24.732;2023-06-01T03:40:00;99427.97;;;17.07;100.00
8416;BME280;4245;42.120;24.732;2023-06-01T03:42:35;99425.81;;;17.20;100.00
8416;BME280;4245;42.120;24.732;2023-06-01T03:45:04;99430.44;;;17.37;100.00
8416;BME280;4245;42.120;24.732;2023-06-01T03:47:31;99437.91;;;17.34;100.00
8416;BME280;4245;42.120;24.732;2023-06-01T03:49:58;99430.13;;;17.41;100.00
8416;BME280;4245;42.120;24.732;2023-06-01T03:52:26;99430.09;;;17.50;100.00
8416;BME280;4245;42.120;24.732;2023-06-01T03:54:54;99429.78;;;17.63;100.00
8416;BME280;4245;42.120;24.732;2023-06-01T03:57:20;99425.44;;;17.62;100.00
8416;BME280;4245;42.120;24.732;2023-06-01T03:59:47;99437.16;;;17.61;100.00
8416;BME280;4245;42.120;24.732;2023-06-01T04:02:16;99437.56;;;17.66;100.00
8416;BME280;4245;42.120;24.732;2023-06-01T04:04:44;99433.56;;;17.70;100.00
8416;BME280;4245;42.120;24.732;2023-06-01T04:07:12;99429.59;;;17.74;100.00
8416;BME280;4245;42.120;24.732;2023-06-01T04:09:43;99442.19;;;17.73;100.00
8416;BME280;4245;42.120;24.732;2023-06-01T04:12:10;99441.44;;;17.81;100.00
8416;BME280;4245;42.120;24.732;2023-06-01T04:14:37;99439.38;;;17.93;100.00
8416;BME280;4245;42.120;24.732;2023-06-01T04:17:04;99441.16;;;18.02;100.00
8416;BME280;4245;42.120;24.732;2023-06-01T04:19:34;99440.25;;;17.93;100.00
8416;BME280;4245;42.120;24.732;2023-06-01T04:22:00;99438.13;;;18.14;100.00
8416;BME280;4245;42.120;24.732;2023-06-01T04:24:27;99441.03;;;18.21;100.00
8416;BME280;4245;42.120;24.732;2023-06-01T04:26:54;99444.38;;;18.33;100.00
8416;BME280;4245;42.120;24.732;2023-06-01T04:29:21;99439.38;;;18.38;100.00
8416;BME280;4245;42.120;24.732;2023-06-01T04:31:50;99448.72;;;18.61;100.00
8416;BME280;4245;42.120;24.732;2023-06-01T04:34:20;99450.88;;;18.57;100.00
8416;BME280;4245;42.120;24.732;2023-06-01T04:36:50;99451.69;;;18.76;100.00
8416;BME280;4245;42.120;24.732;2023-06-01T04:39:17;99455.69;;;18.89;100.00
8416;BME280;4245;42.120;24.732;2023-06-01T04:41:44;99457.59;;;18.97;100.00
8416;BME280;4245;42.120;24.732;2023-06-01T04:44:12;99456.13;;;19.02;100.00
8416;BME280;4245;42.120;24.732;2023-06-01T04:46:39;99460.41;;;19.13;100.00
8416;BME280;4245;42.120;24.732;2023-06-01T04:49:06;99459.31;;;19.24;100.00
8416;BME280;4245;42.120;24.732;2023-06-01T04:51:33;99460.75;;;19.36;100.00
8416;BME280;4245;42.120;24.732;2023-06-01T04:54:03;99457.00;;;19.55;100.00
8416;BME280;4245;42.120;24.732;2023-06-01T04:56:30;99457.06;;;19.71;100.00
8416;BME280;4245;42.120;24.732;2023-06-01T04:58:57;99462.44;;;19.63;100.00
8416;BME280;4245;42.120;24.732;2023-06-01T05:01:24;99463.16;;;19.73;100.00
8416;BME280;4245;42.120;24.732;2023-06-01T05:03:54;99459.34;;;19.83;100.00
8416;BME280;4245;42.120;24.732;2023-06-01T05:06:22;99452.31;;;19.99;100.00
8416;BME280;4245;42.120;24.732;2023-06-01T05:08:50;99465.53;;;20.26;100.00
8416;BME280;4245;42.120;24.732;2023-06-01T05:11:18;99462.84;;;20.26;100.00
8416;BME280;4245;42.120;24.732;2023-06-01T05:13:46;99461.09;;;20.51;100.00
8416;BME280;4245;42.120;24.732;2023-06-01T05:16:13;99461.59;;;20.87;100.00
8416;BME280;4245;42.120;24.732;2023-06-01T05:18:40;99470.56;;;21.03;100.00
8416;BME280;4245;42.120;24.732;2023-06-01T05:21:07;99467.00;;;21.03;100.00
8416;BME280;4245;42.120;24.732;2023-06-01T05:23:34;99465.84;;;21.21;100.00
8416;BME280;4245;42.120;24.732;2023-06-01T05:26:01;99470.34;;;21.61;98.78
8416;BME280;4245;42.120;24.732;2023-06-01T05:28:31;99456.50;;;21.56;100.00
8416;BME280;4245;42.120;24.732;2023-06-01T05:30:58;99470.94;;;21.88;100.00
8416;BME280;4245;42.120;24.732;2023-06-01T05:33:25;99471.91;;;22.65;100.00
8416;BME280;4245;42.120;24.732;2023-06-01T05:35:52;99476.94;;;22.68;94.56
8416;BME280;4245;42.120;24.732;2023-06-01T05:38:19;99476.34;;;22.58;95.11
8416;BME280;4245;42.120;24.732;2023-06-01T05:40:46;99471.25;;;22.85;99.71
8416;BME280;4245;42.120;24.732;2023-06-01T05:43:14;99473.06;;;23.30;99.02
8416;BME280;4245;42.120;24.732;2023-06-01T05:45:42;99478.00;;;23.50;87.63
8416;BME280;4245;42.120;24.732;2023-06-01T05:48:09;99470.03;;;23.77;93.90
8416;BME280;4245;42.120;24.732;2023-06-01T05:50:39;99478.38;;;23.47;85.35
8416;BME280;4245;42.120;24.732;2023-06-01T05:53:05;99475.56;;;23.55;87.86
8416;BME280;4245;42.120;24.732;2023-06-01T05:55:32;99475.38;;;24.00;89.20
8416;BME280;4245;42.120;24.732;2023-06-01T05:57:59;99466.66;;;24.55;84.89
8416;BME280;4245;42.120;24.732;2023-06-01T06:00:26;99474.09;;;25.04;84.52
8416;BME280;4245;42.120;24.732;2023-06-01T06:02:54;99485.19;;;25.30;76.99
8416;BME280;4245;42.120;24.732;2023-06-01T06:05:21;99483.00;;;25.19;78.14
8416;BME280;4245;42.120;24.732;2023-06-01T06:07:48;99483.16;;;25.39;78.57
8416;BME280;4245;42.120;24.732;2023-06-01T06:10:14;99482.97;;;25.40;71.99
8416;BME280;4245;42.120;24.732;2023-06-01T06:12:41;99481.22;;;25.33;75.18
8416;BME280;4245;42.120;24.732;2023-06-01T06:15:09;99481.19;;;25.54;75.20
8416;BME280;4245;42.120;24.732;2023-06-01T06:17:36;99477.66;;;25.88;67.73
8416;BME280;4245;42.120;24.732;2023-06-01T06:20:05;99472.78;;;25.77;72.12
8416;BME280;4245;42.120;24.732;2023-06-01T06:22:33;99479.00;;;25.99;72.16
8416;BME280;4245;42.120;24.732;2023-06-01T06:25:00;99471.59;;;26.27;70.64
8416;BME280;4245;42.120;24.732;2023-06-01T06:27:26;99475.28;;;26.19;70.36
8416;BME280;4245;42.120;24.732;2023-06-01T06:29:53;99479.59;;;26.35;65.42
8416;BME280;4245;42.120;24.732;2023-06-01T06:32:20;99481.56;;;26.13;65.93
8416;BME280;4245;42.120;24.732;2023-06-01T06:34:47;99483.22;;;26.14;66.06
8416;BME280;4245;42.120;24.732;2023-06-01T06:37:15;99476.09;;;26.07;67.44
8416;BME280;4245;42.120;24.732;2023-06-01T06:39:43;99469.91;;;26.26;66.20
8416;BME280;4245;42.120;24.732;2023-06-01T06:42:10;99470.22;;;26.51;66.02
8416;BME280;4245;42.120;24.732;2023-06-01T06:47:12;99482.19;;;26.63;65.44
8416;BME280;4245;42.120;24.732;2023-06-01T06:49:49;99475.47;;;26.59;63.84
8416;BME280;4245;42.120;24.732;2023-06-01T06:52:17;99468.34;;;26.64;67.89
8416;BME280;4245;42.120;24.732;2023-06-01T06:54:44;99476.22;;;27.00;66.66
8416;BME280;4245;42.120;24.732;2023-06-01T06:57:11;99479.38;;;27.30;64.31
8416;BME280;4245;42.120;24.732;2023-06-01T06:59:38;99468.66;;;27.68;61.98
8416;BME280;4245;42.120;24.732;2023-06-01T07:02:05;99474.88;;;27.95;59.45
8416;BME280;4245;42.120;24.732;2023-06-01T07:04:33;99475.53;;;27.84;58.53
8416;BME280;4245;42.120;24.732;2023-06-01T07:06:59;99474.75;;;27.63;58.90
8416;BME280;4245;42.120;24.732;2023-06-01T07:09:30;99469.72;;;27.34;57.75
8416;BME280;4245;42.120;24.732;2023-06-01T07:11:57;99473.47;;;27.07;60.05
8416;BME280;4245;42.120;24.732;2023-06-01T07:14:24;99468.47;;;27.04;64.34
8416;BME280;4245;42.120;24.732;2023-06-01T07:16:51;99464.06;;;27.29;63.81
8416;BME280;4245;42.120;24.732;2023-06-01T07:19:17;99460.25;;;27.70;58.86
8416;BME280;4245;42.120;24.732;2023-06-01T07:21:44;99458.63;;;28.26;55.18
8416;BME280;4245;42.120;24.732;2023-06-01T07:24:11;99457.00;;;28.05;58.90
8416;BME280;4245;42.120;24.732;2023-06-01T07:26:39;99447.47;;;28.28;57.34
8416;BME280;4245;42.120;24.732;2023-06-01T07:29:06;99456.38;;;28.55;58.33
8416;BME280;4245;42.120;24.732;2023-06-01T07:31:33;99455.31;;;28.93;55.15
8416;BME280;4245;42.120;24.732;2023-06-01T07:34:00;99460.72;;;29.00;53.33
8416;BME280;4245;42.120;24.732;2023-06-01T07:36:27;99460.13;;;28.98;53.89
8416;BME280;4245;42.120;24.732;2023-06-01T07:38:58;99463.16;;;29.40;52.31
8416;BME280;4245;42.120;24.732;2023-06-01T07:41:25;99456.72;;;29.27;53.00
8416;BME280;4245;42.120;24.732;2023-06-01T07:43:54;99454.28;;;29.44;52.66
8416;BME280;4245;42.120;24.732;2023-06-01T07:46:21;99456.56;;;29.72;51.47
8416;BME280;4245;42.120;24.732;2023-06-01T07:48:48;99445.81;;;29.52;50.60
8416;BME280;4245;42.120;24.732;2023-06-01T07:51:16;99448.59;;;29.46;49.56
8416;BME280;4245;42.120;24.732;2023-06-01T07:53:43;99449.72;;;29.38;50.99
8416;BME280;4245;42.120;24.732;2023-06-01T07:56:09;99446.63;;;29.28;53.01
8416;BME280;4245;42.120;24.732;2023-06-01T07:58:37;99441.19;;;29.71;52.45
8416;BME280;4245;42.120;24.732;2023-06-01T08:01:06;99442.72;;;30.03;51.08
8416;BME280;4245;42.120;24.732;2023-06-01T08:03:32;99444.06;;;30.49;49.25
8416;BME280;4245;42.120;24.732;2023-06-01T08:05:59;99435.50;;;30.57;50.25
8416;BME280;4245;42.120;24.732;2023-06-01T08:08:30;99438.50;;;30.97;47.86
8416;BME280;4245;42.120;24.732;2023-06-01T08:10:57;99430.34;;;31.32;45.92
8416;BME280;4245;42.120;24.732;2023-06-01T08:13:24;99430.22;;;31.27;46.02
8416;BME280;4245;42.120;24.732;2023-06-01T08:15:51;99430.56;;;31.54;44.76
8416;BME280;4245;42.120;24.732;2023-06-01T08:18:19;99432.84;;;31.68;44.84
8416;BME280;4245;42.120;24.732;2023-06-01T08:20:47;99425.31;;;31.87;43.52
8416;BME280;4245;42.120;24.732;2023-06-01T08:23:14;99422.81;;;31.74;45.18
8416;BME280;4245;42.120;24.732;2023-06-01T08:25:43;99431.00;;;31.97;42.80
8416;BME280;4245;42.120;24.732;2023-06-01T08:28:09;99430.16;;;32.08;43.06
8416;BME280;4245;42.120;24.732;2023-06-01T08:30:36;99433.56;;;32.39;41.83
8416;BME280;4245;42.120;24.732;2023-06-01T08:33:03;99433.03;;;32.82;39.60
8416;BME280;4245;42.120;24.732;2023-06-01T08:35:31;99433.63;;;32.44;40.74
8416;BME280;4245;42.120;24.732;2023-06-01T08:37:59;99436.56;;;32.37;41.99
8416;BME280;4245;42.120;24.732;2023-06-01T08:40:25;99432.66;;;32.50;41.65
8416;BME280;4245;42.120;24.732;2023-06-01T08:42:57;99426.09;;;32.79;41.07
8416;BME280;4245;42.120;24.732;2023-06-01T08:45:25;99429.19;;;32.99;40.40
8416;BME280;4245;42.120;24.732;2023-06-01T08:47:53;99423.06;;;33.26;40.06
8416;BME280;4245;42.120;24.732;2023-06-01T08:50:20;99428.16;;;33.34;39.97
8416;BME280;4245;42.120;24.732;2023-06-01T08:52:49;99418.38;;;32.36;40.30
8416;BME280;4245;42.120;24.732;2023-06-01T08:55:19;99411.03;;;32.53;40.68
8416;BME280;4245;42.120;24.732;2023-06-01T08:57:46;99412.28;;;32.91;39.71
8416;BME280;4245;42.120;24.732;2023-06-01T09:00:13;99411.19;;;33.08;39.13
8416;BME280;4245;42.120;24.732;2023-06-01T09:02:40;99410.94;;;33.10;37.73
8416;BME280;4245;42.120;24.732;2023-06-01T09:05:08;99406.19;;;33.22;36.99
8416;BME280;4245;42.120;24.732;2023-06-01T09:07:35;99407.69;;;33.46;36.29
8416;BME280;4245;42.120;24.732;2023-06-01T09:10:04;99406.81;;;33.62;36.81
8416;BME280;4245;42.120;24.732;2023-06-01T09:12:31;99401.28;;;33.79;36.20
8416;BME280;4245;42.120;24.732;2023-06-01T09:15:10;99400.16;;;33.58;35.41
8416;BME280;4245;42.120;24.732;2023-06-01T09:17:37;99395.88;;;33.29;36.82
8416;BME280;4245;42.120;24.732;2023-06-01T09:20:06;99393.97;;;33.68;35.94
8416;BME280;4245;42.120;24.732;2023-06-01T09:22:40;99400.19;;;33.80;35.49
8416;BME280;4245;42.120;24.732;2023-06-01T09:25:09;99389.88;;;33.71;35.83
8416;BME280;4245;42.120;24.732;2023-06-01T09:27:45;99391.81;;;33.92;34.88
8416;BME280;4245;42.120;24.732;2023-06-01T09:30:13;99391.53;;;34.15;33.77
8416;BME280;4245;42.120;24.732;2023-06-01T09:32:40;99385.19;;;34.36;32.17
8416;BME280;4245;42.120;24.732;2023-06-01T09:35:08;99383.75;;;34.56;31.58
8416;BME280;4245;42.120;24.732;2023-06-01T09:37:37;99388.13;;;34.78;32.22
8416;BME280;4245;42.120;24.732;2023-06-01T09:40:18;99381.66;;;34.68;30.92
8416;BME280;4245;42.120;24.732;2023-06-01T09:42:45;99375.00;;;34.64;31.76
8416;BME280;4245;42.120;24.732;2023-06-01T09:45:19;99368.75;;;34.46;31.90
8416;BME280;4245;42.120;24.732;2023-06-01T09:47:46;99379.53;;;34.21;33.06
8416;BME280;4245;42.120;24.732;2023-06-01T09:50:32;99374.91;;;34.27;30.98
8416;BME280;4245;42.120;24.732;2023-06-01T09:53:00;99374.94;;;34.10;31.44
8416;BME280;4245;42.120;24.732;2023-06-01T09:55:28;99376.34;;;34.34;31.96
8416;BME280;4245;42.120;24.732;2023-06-01T09:58:19;99376.03;;;34.58;31.44
8416;BME280;4245;42.120;24.732;2023-06-01T10:00:47;99365.03;;;34.89;29.13
8416;BME280;4245;42.120;24.732;2023-06-01T10:03:15;99361.34;;;34.52;29.45
8416;BME280;4245;42.120;24.732;2023-06-01T10:05:43;99364.59;;;34.44;29.78
8416;BME280;4245;42.120;24.732;2023-06-01T10:08:11;99366.69;;;34.32;30.39
8416;BME280;4245;42.120;24.732;2023-06-01T10:10:42;99356.22;;;34.12;30.22
8416;BME280;4245;42.120;24.732;2023-06-01T10:13:10;99348.81;;;34.39;30.65
8416;BME280;4245;42.120;24.732;2023-06-01T10:15:37;99355.00;;;34.78;29.90
8416;BME280;4245;42.120;24.732;2023-06-01T10:18:04;99349.41;;;34.41;29.00
8416;BME280;4245;42.120;24.732;2023-06-01T10:20:32;99351.16;;;34.26;29.38
8416;BME280;4245;42.120;24.732;2023-06-01T10:23:01;99343.13;;;34.78;29.45
8416;BME280;4245;42.120;24.732;2023-06-01T10:25:30;99345.50;;;35.33;29.47
8416;BME280;4245;42.120;24.732;2023-06-01T10:28:01;99347.97;;;35.35;29.10
8416;BME280;4245;42.120;24.732;2023-06-01T10:30:29;99347.59;;;34.84;28.75
8416;BME280;4245;42.120;24.732;2023-06-01T10:32:56;99341.94;;;34.69;29.60
8416;BME280;4245;42.120;24.732;2023-06-01T10:35:51;99336.88;;;35.19;29.25
8416;BME280;4245;42.120;24.732;2023-06-01T10:38:25;99337.19;;;35.28;27.50
8416;BME280;4245;42.120;24.732;2023-06-01T10:40:51;99329.91;;;34.80;25.87
8416;BME280;4245;42.120;24.732;2023-06-01T10:43:49;99325.34;;;34.37;27.28
8416;BME280;4245;42.120;24.732;2023-06-01T10:46:36;99324.28;;;34.43;27.05
8416;BME280;4245;42.120;24.732;2023-06-01T10:49:04;99328.53;;;34.02;28.16
8416;BME280;4245;42.120;24.732;2023-06-01T10:51:31;99316.50;;;33.65;27.09
8416;BME280;4245;42.120;24.732;2023-06-01T10:54:27;99313.75;;;33.65;28.41
8416;BME280;4245;42.120;24.732;2023-06-01T10:57:20;99310.34;;;34.23;28.28
8416;BME280;4245;42.120;24.732;2023-06-01T11:00:17;99297.88;;;34.52;27.28
8416;BME280;4245;42.120;24.732;2023-06-01T11:02:47;99299.00;;;34.51;27.58
8416;BME280;4245;42.120;24.732;2023-06-01T11:05:36;99302.69;;;34.94;26.20
8416;BME280;4245;42.120;24.732;2023-06-01T11:08:03;99304.47;;;35.15;26.35
8416;BME280;4245;42.120;24.732;2023-06-01T11:10:55;99287.72;;;35.26;26.48
8416;BME280;4245;42.120;24.732;2023-06-01T11:13:24;99287.47;;;34.91;26.83
8416;BME280;4245;42.120;24.732;2023-06-01T11:16:30;99283.28;;;34.83;27.00
8416;BME280;4245;42.120;24.732;2023-06-01T11:18:59;99278.31;;;35.22;26.76
8416;BME280;4245;42.120;24.732;2023-06-01T11:21:29;99280.56;;;35.30;26.17
8416;BME280;4245;42.120;24.732;2023-06-01T11:23:57;99271.56;;;35.55;25.61
8416;BME280;4245;42.120;24.732;2023-06-01T11:26:29;99270.78;;;35.65;25.36
8416;BME280;4245;42.120;24.732;2023-06-01T11:29:08;99261.31;;;35.51;25.67
8416;BME280;4245;42.120;24.732;2023-06-01T11:31:39;99263.00;;;35.57;25.64
8416;BME280;4245;42.120;24.732;2023-06-01T11:34:08;99257.69;;;35.45;26.11
8416;BME280;4245;42.120;24.732;2023-06-01T11:36:43;99245.19;;;35.22;26.22
8416;BME280;4245;42.120;24.732;2023-06-01T11:39:17;99245.94;;;35.70;25.68
8416;BME280;4245;42.120;24.732;2023-06-01T11:41:47;99245.53;;;35.41;25.47
8416;BME280;4245;42.120;24.732;2023-06-01T11:44:13;99225.38;;;34.94;26.56
8416;BME280;4245;42.120;24.732;2023-06-01T11:46:51;99222.63;;;35.51;26.18
8416;BME280;4245;42.120;24.732;2023-06-01T11:49:19;99219.31;;;35.54;25.10
8416;BME280;4245;42.120;24.732;2023-06-01T11:51:45;99226.88;;;35.79;25.06
8416;BME280;4245;42.120;24.732;2023-06-01T11:54:12;99218.91;;;35.97;24.75
8416;BME280;4245;42.120;24.732;2023-06-01T11:56:39;99212.19;;;35.63;24.98
8416;BME280;4245;42.120;24.732;2023-06-01T11:59:07;99212.41;;;34.57;25.78
8416;BME280;4245;42.120;24.732;2023-06-01T12:01:35;99198.44;;;34.32;26.09
8416;BME280;4245;42.120;24.732;2023-06-01T12:04:05;99199.34;;;34.79;25.89
8416;BME280;4245;42.120;24.732;2023-06-01T12:06:33;99203.66;;;35.12;25.10
8416;BME280;4245;42.120;24.732;2023-06-01T12:09:01;99187.25;;;35.43;24.63
8416;BME280;4245;42.120;24.732;2023-06-01T12:11:28;99192.81;;;35.53;24.34
8416;BME280;4245;42.120;24.732;2023-06-01T12:13:56;99190.88;;;35.53;24.26
8416;BME280;4245;42.120;24.732;2023-06-01T12:16:24;99178.31;;;35.20;24.59
8416;BME280;4245;42.120;24.732;2023-06-01T12:18:51;99166.50;;;35.40;24.42
8416;BME280;4245;42.120;24.732;2023-06-01T12:21:19;99172.91;;;35.51;23.85
8416;BME280;4245;42.120;24.732;2023-06-01T12:23:49;99169.59;;;35.54;24.30
8416;BME280;4245;42.120;24.732;2023-06-01T12:26:16;99169.84;;;35.37;23.86
8416;BME280;4245;42.120;24.732;2023-06-01T12:28:47;99167.19;;;35.67;23.86
8416;BME280;4245;42.120;24.732;2023-06-01T12:31:16;99168.03;;;35.83;23.99
8416;BME280;4245;42.120;24.732;2023-06-01T12:33:44;99171.13;;;36.22;23.68
8416;BME280;4245;42.120;24.732;2023-06-01T12:39:06;99174.44;;;36.39;23.07
8416;BME280;4245;42.120;24.732;2023-06-01T12:41:33;99159.63;;;35.43;23.11
8416;BME280;4245;42.120;24.732;2023-06-01T12:43:59;99163.44;;;34.37;24.79
8416;BME280;4245;42.120;24.732;2023-06-01T12:46:28;99154.34;;;34.37;24.78
8416;BME280;4245;42.120;24.732;2023-06-01T12:49:11;99156.69;;;34.55;24.97
8416;BME280;4245;42.120;24.732;2023-06-01T12:51:38;99164.66;;;34.94;24.69
8416;BME280;4245;42.120;24.732;2023-06-01T12:54:07;99166.50;;;34.78;24.57
8416;BME280;4245;42.120;24.732;2023-06-01T12:56:34;99165.34;;;34.69;24.31
8416;BME280;4245;42.120;24.732;2023-06-01T12:59:01;99169.38;;;34.98;24.15
8416;BME280;4245;42.120;24.732;2023-06-01T13:01:28;99168.69;;;34.39;24.40
8416;BME280;4245;42.120;24.732;2023-06-01T13:03:55;99154.69;;;34.14;25.66
8416;BME280;4245;42.120;24.732;2023-06-01T13:06:23;99157.97;;;34.79;25.22
8416;BME280;4245;42.120;24.732;2023-06-01T13:08:50;99169.25;;;34.78;24.42
8416;BME280;4245;42.120;24.732;2023-06-01T13:11:19;99162.00;;;35.14;23.84
8416;BME280;4245;42.120;24.732;2023-06-01T13:13:45;99159.34;;;34.82;23.42
8416;BME280;4245;42.120;24.732;2023-06-01T13:16:13;99160.19;;;34.87;22.86
8416;BME280;4245;42.120;24.732;2023-06-01T13:18:40;99156.44;;;34.62;22.92
8416;BME280;4245;42.120;24.732;2023-06-01T13:21:06;99154.72;;;34.98;23.34
8416;BME280;4245;42.120;24.732;2023-06-01T13:23:33;99157.94;;;35.37;23.45